Time;durP1;ratioP1;P1;durP2;ratioP2;P2;SDS_P1;SDS_P2;PMS_P1;PMS_P2;Temp;Humidity;BMP_temperature;BMP_pressure;BME280_temperature;BME280_humidity;BME280_pressure;Samples;Min_cycle;Max_cycle;Signal;HPM_P1;HPM_P2
2022/09/03 00:02:08;;;;;;;;;;;17.00;97.70;;;;;;5028966;28;20275;-77
2022/09/03 00:04:57;;;;;;;;;;;16.90;97.60;;;;;;5030344;28;19917;-75
2022/09/03 00:07:27;;;;;;;;;;;16.90;98.40;;;;;;5029858;28;19952;-74
2022/09/03 00:09:56;;;;;;;;;;;16.90;98.40;;;;;;5029826;28;19916;-73
2022/09/03 00:12:31;;;;;;;;;;;16.90;98.10;;;;;;5045855;28;20331;-73
2022/09/03 00:15:02;;;;;;;;;;;16.90;98.30;;;;;;5043118;28;19913;-75
2022/09/03 00:17:39;;;;;;;;;;;16.90;98.00;;;;;;5027375;28;20012;-76
2022/09/03 00:20:14;;;;;;;;;;;16.90;98.00;;;;;;5049585;28;19913;-75
2022/09/03 00:22:44;;;;;;;;;;;16.90;97.90;;;;;;5036275;28;19918;-73
2022/09/03 00:25:13;;;;;;;;;;;16.90;97.80;;;;;;5048548;28;20326;-76
2022/09/03 00:27:39;;;;;;;;;;;16.80;97.80;;;;;;5046109;28;19917;-73
2022/09/03 00:30:05;;;;;;;;;;;16.80;97.90;;;;;;5035201;28;19974;-77
2022/09/03 00:32:52;;;;;;;;;;;16.80;97.90;;;;;;5020002;28;20031;-75
2022/09/03 00:35:30;;;;;;;;;;;16.80;97.80;;;;;;5027227;28;20025;-75
2022/09/03 00:37:56;;;;;;;;;;;16.80;97.60;;;;;;5037316;28;19967;-72
2022/09/03 00:40:40;;;;;;;;;;;16.80;97.80;;;;;;5029664;28;20007;-75
2022/09/03 00:43:21;;;;;;;;;;;16.70;98.10;;;;;;5031822;28;19917;-72
2022/09/03 00:46:04;;;;;;;;;;;16.70;98.90;;;;;;5034138;28;19953;-72
2022/09/03 00:48:32;;;;;;;;;;;16.70;98.50;;;;;;5036087;28;19964;-71
2022/09/03 00:51:17;;;;;;;;;;;16.60;97.90;;;;;;5027199;28;19921;-72
2022/09/03 00:53:51;;;;;;;;;;;16.60;97.90;;;;;;5034516;28;19963;-75
2022/09/03 00:56:35;;;;;;;;;;;16.70;98.30;;;;;;5025799;28;19914;-76
2022/09/03 00:59:01;;;;;;;;;;;16.60;98.30;;;;;;5030407;28;19921;-76
2022/09/03 01:01:46;;;;;;;;;;;16.60;98.00;;;;;;5049890;28;19932;-76
2022/09/03 01:04:21;;;;;;;;;;;16.60;98.50;;;;;;5031449;28;19920;-72
2022/09/03 01:07:09;;;;;;;;;;;16.60;98.50;;;;;;5030296;28;19929;-77
2022/09/03 01:09:38;;;;;;;;;;;16.50;98.30;;;;;;5042177;28;19974;-74
2022/09/03 01:12:24;;;;;;;;;;;16.50;98.90;;;;;;5038572;28;19913;-72
2022/09/03 01:14:55;;;;;;;;;;;16.50;98.70;;;;;;5036096;28;20017;-76
2022/09/03 01:17:21;;;;;;;;;;;16.40;98.50;;;;;;5030184;28;19921;-73
2022/09/03 01:19:50;;;;;;;;;;;16.40;98.80;;;;;;5038421;28;19920;-74
2022/09/03 01:22:23;;;;;;;;;;;16.40;98.60;;;;;;5033770;28;20013;-74
2022/09/03 01:24:48;;;;;;;;;;;16.40;98.60;;;;;;5033620;28;20311;-75
2022/09/03 01:27:24;;;;;;;;;;;16.40;98.20;;;;;;5025189;28;19928;-72
2022/09/03 01:30:01;;;;;;;;;;;16.40;98.60;;;;;;5042977;28;20242;-74
2022/09/03 01:32:35;;;;;;;;;;;16.40;98.50;;;;;;5024626;28;19913;-75
2022/09/03 01:35:07;;;;;;;;;;;16.40;98.90;;;;;;5021872;28;19921;-70
2022/09/03 01:37:39;;;;;;;;;;;16.30;98.40;;;;;;5026715;28;19917;-77
2022/09/03 01:40:12;;;;;;;;;;;16.30;99.30;;;;;;5030834;28;20337;-73
2022/09/03 01:42:37;;;;;;;;;;;16.40;98.60;;;;;;5029010;28;19920;-78
2022/09/03 01:45:11;;;;;;;;;;;16.30;98.60;;;;;;5036973;28;19936;-76
2022/09/03 01:47:51;;;;;;;;;;;16.30;98.60;;;;;;5049483;28;19917;-74
2022/09/03 01:50:32;;;;;;;;;;;16.30;98.70;;;;;;5033156;28;19917;-76
2022/09/03 01:53:04;;;;;;;;;;;16.30;98.90;;;;;;5029346;28;19924;-74
2022/09/03 01:55:36;;;;;;;;;;;16.30;98.20;;;;;;5035482;28;19945;-72
2022/09/03 01:58:08;;;;;;;;;;;16.30;98.60;;;;;;5031914;28;20023;-73
2022/09/03 02:00:34;;;;;;;;;;;16.30;98.30;;;;;;5030675;28;19921;-72
2022/09/03 02:03:05;;;;;;;;;;;16.30;98.50;;;;;;5035899;28;19925;-76
2022/09/03 02:05:31;;;;;;;;;;;16.30;98.80;;;;;;5031698;28;20374;-76
2022/09/03 02:08:02;;;;;;;;;;;16.30;98.10;;;;;;5030752;28;19913;-76
2022/09/03 02:10:31;;;;;;;;;;;16.30;98.30;;;;;;5047257;28;19917;-71
2022/09/03 02:13:04;;;;;;;;;;;16.30;98.80;;;;;;5033878;28;19920;-75
2022/09/03 02:15:31;;;;;;;;;;;16.30;98.20;;;;;;5021739;28;19914;-72
2022/09/03 02:17:59;;;;;;;;;;;16.30;98.60;;;;;;5047354;28;19917;-71
2022/09/03 02:20:26;;;;;;;;;;;16.30;98.60;;;;;;5043008;28;20016;-77
2022/09/03 02:22:53;;;;;;;;;;;16.30;97.90;;;;;;5035585;28;19923;-73
2022/09/03 02:25:20;;;;;;;;;;;16.30;97.50;;;;;;5031924;28;19921;-74
2022/09/03 02:27:47;;;;;;;;;;;16.30;98.30;;;;;;5031817;28;19927;-74
2022/09/03 02:30:12;;;;;;;;;;;16.30;98.00;;;;;;5031183;28;20387;-76
2022/09/03 02:32:38;;;;;;;;;;;16.30;98.10;;;;;;5045435;28;20000;-72
2022/09/03 02:35:04;;;;;;;;;;;16.30;97.50;;;;;;5034792;28;19913;-73
2022/09/03 02:37:30;;;;;;;;;;;16.40;96.80;;;;;;5032968;28;19914;-75
2022/09/03 02:39:55;;;;;;;;;;;16.40;97.30;;;;;;5023946;28;19953;-79
2022/09/03 02:42:21;;;;;;;;;;;16.30;96.90;;;;;;5045698;28;19964;-75
2022/09/03 02:44:49;;;;;;;;;;;16.40;97.70;;;;;;5032564;28;19921;-73
2022/09/03 02:47:14;;;;;;;;;;;16.40;97.20;;;;;;5031080;28;19921;-72
2022/09/03 02:49:41;;;;;;;;;;;16.30;97.60;;;;;;5031788;28;19913;-72
2022/09/03 02:52:08;;;;;;;;;;;16.30;98.50;;;;;;5033573;28;19920;-72
2022/09/03 02:54:38;;;;;;;;;;;16.30;98.00;;;;;;5030405;28;19913;-74
2022/09/03 02:57:14;;;;;;;;;;;16.20;97.70;;;;;;5028732;28;19940;-72
2022/09/03 02:59:42;;;;;;;;;;;16.20;98.20;;;;;;5032300;28;19917;-76
2022/09/03 03:02:08;;;;;;;;;;;16.20;97.60;;;;;;5034551;28;19932;-75
2022/09/03 03:04:34;;;;;;;;;;;16.20;96.90;;;;;;5018690;28;20312;-81
2022/09/03 03:06:59;;;;;;;;;;;16.30;96.80;;;;;;5025452;28;19913;-73
2022/09/03 03:09:25;;;;;;;;;;;16.30;97.30;;;;;;5030707;28;19924;-76
2022/09/03 03:11:53;;;;;;;;;;;16.30;97.40;;;;;;5033774;28;19921;-73
2022/09/03 03:14:19;;;;;;;;;;;16.20;97.10;;;;;;5031821;28;19937;-73
2022/09/03 03:16:45;;;;;;;;;;;16.20;97.90;;;;;;5032974;28;19971;-76
2022/09/03 03:19:10;;;;;;;;;;;16.20;97.30;;;;;;5030999;28;19921;-73
2022/09/03 03:21:36;;;;;;;;;;;16.20;97.20;;;;;;5034850;28;19944;-73
2022/09/03 03:24:02;;;;;;;;;;;16.20;97.70;;;;;;5022174;28;19922;-76
2022/09/03 03:26:27;;;;;;;;;;;16.20;97.90;;;;;;5029495;28;20050;-76
2022/09/03 03:28:58;;;;;;;;;;;16.10;97.90;;;;;;5027376;28;19913;-74
2022/09/03 03:31:23;;;;;;;;;;;16.10;98.00;;;;;;5033077;28;20321;-75
2022/09/03 03:33:53;;;;;;;;;;;16.10;97.40;;;;;;5031562;28;20003;-74
2022/09/03 03:36:19;;;;;;;;;;;16.10;97.60;;;;;;5043766;28;19924;-76
2022/09/03 03:38:44;;;;;;;;;;;16.10;98.00;;;;;;5043632;28;19913;-75
2022/09/03 03:41:18;;;;;;;;;;;16.10;97.90;;;;;;5040604;28;19921;-73
2022/09/03 03:43:44;;;;;;;;;;;16.10;97.30;;;;;;5020005;28;19960;-73
2022/09/03 03:46:10;;;;;;;;;;;16.10;97.60;;;;;;5032301;28;19913;-73
2022/09/03 03:48:36;;;;;;;;;;;16.10;98.20;;;;;;5030813;28;19920;-71
2022/09/03 03:51:06;;;;;;;;;;;16.10;97.90;;;;;;5029315;28;19917;-72
2022/09/03 03:53:33;;;;;;;;;;;16.10;98.00;;;;;;5034417;28;19959;-77
2022/09/03 03:56:00;;;;;;;;;;;16.00;98.20;;;;;;5033375;28;20246;-74
2022/09/03 03:58:27;;;;;;;;;;;16.00;97.90;;;;;;5028014;28;19913;-74
2022/09/03 04:00:52;;;;;;;;;;;16.00;97.40;;;;;;5027073;28;19917;-73
2022/09/03 04:03:18;;;;;;;;;;;16.00;97.40;;;;;;5039856;28;19925;-73
2022/09/03 04:05:53;;;;;;;;;;;16.00;98.50;;;;;;5025513;28;19986;-75
2022/09/03 04:08:19;;;;;;;;;;;16.00;98.20;;;;;;5029058;28;19913;-74
2022/09/03 04:10:45;;;;;;;;;;;15.90;98.80;;;;;;5041400;28;20024;-75
2022/09/03 04:13:11;;;;;;;;;;;15.90;97.90;;;;;;5030004;28;19919;-73
2022/09/03 04:15:36;;;;;;;;;;;15.80;97.80;;;;;;5035476;28;20003;-74
2022/09/03 04:18:02;;;;;;;;;;;15.80;99.00;;;;;;5033753;28;19913;-79
2022/09/03 04:20:28;;;;;;;;;;;15.80;98.70;;;;;;5033446;28;19921;-74
2022/09/03 04:22:53;;;;;;;;;;;15.70;98.50;;;;;;5031850;28;19956;-74
2022/09/03 04:25:19;;;;;;;;;;;15.70;98.50;;;;;;5033079;28;20291;-74
2022/09/03 04:27:44;;;;;;;;;;;15.70;98.80;;;;;;5033320;28;20000;-74
2022/09/03 04:30:10;;;;;;;;;;;15.60;99.10;;;;;;5019808;28;19917;-75
2022/09/03 04:32:55;;;;;;;;;;;15.60;99.60;;;;;;5029190;28;19975;-73
2022/09/03 04:35:21;;;;;;;;;;;15.50;99.50;;;;;;5044151;28;20012;-76
2022/09/03 04:37:46;;;;;;;;;;;15.50;99.50;;;;;;5024697;28;20377;-75
2022/09/03 04:40:12;;;;;;;;;;;15.50;99.10;;;;;;5027548;28;20001;-72
2022/09/03 04:42:38;;;;;;;;;;;15.50;99.30;;;;;;5023971;28;19921;-72
2022/09/03 04:45:04;;;;;;;;;;;15.40;99.50;;;;;;5038444;28;19913;-71
2022/09/03 04:47:29;;;;;;;;;;;15.40;99.60;;;;;;5031558;28;20011;-74
2022/09/03 04:49:55;;;;;;;;;;;15.40;99.80;;;;;;5034505;28;19913;-74
2022/09/03 04:52:20;;;;;;;;;;;15.40;99.40;;;;;;5036487;28;20016;-79
2022/09/03 04:54:46;;;;;;;;;;;15.30;99.70;;;;;;5041559;28;19925;-77
2022/09/03 04:57:12;;;;;;;;;;;15.30;99.90;;;;;;5032047;28;19914;-74
2022/09/03 04:59:39;;;;;;;;;;;15.30;99.80;;;;;;5033822;28;19917;-72
2022/09/03 05:02:05;;;;;;;;;;;15.20;98.70;;;;;;5036535;28;20235;-73
2022/09/03 05:04:31;;;;;;;;;;;15.30;98.30;;;;;;5024818;28;20315;-74
2022/09/03 05:06:57;;;;;;;;;;;15.30;98.40;;;;;;5030523;28;19920;-75
2022/09/03 05:09:22;;;;;;;;;;;15.40;99.20;;;;;;5034074;28;19913;-75
2022/09/03 05:11:48;;;;;;;;;;;15.40;99.30;;;;;;5032521;28;20403;-76
2022/09/03 05:14:13;;;;;;;;;;;15.40;99.80;;;;;;5046762;28;20198;-74
2022/09/03 05:16:39;;;;;;;;;;;15.40;99.80;;;;;;5030375;28;19959;-76
2022/09/03 05:19:04;;;;;;;;;;;15.40;99.80;;;;;;5032013;28;19913;-75
2022/09/03 05:21:31;;;;;;;;;;;15.30;99.90;;;;;;5031382;28;19913;-72
2022/09/03 05:23:58;;;;;;;;;;;15.30;99.90;;;;;;5033724;28;19920;-72
2022/09/03 05:26:25;;;;;;;;;;;15.30;99.20;;;;;;5025767;28;19975;-75
2022/09/03 05:28:55;;;;;;;;;;;15.30;98.80;;;;;;5018579;28;19921;-77
2022/09/03 05:31:22;;;;;;;;;;;15.30;99.60;;;;;;5031654;28;19921;-73
2022/09/03 05:33:48;;;;;;;;;;;15.30;99.10;;;;;;5031287;28;20055;-71
2022/09/03 05:36:15;;;;;;;;;;;15.30;98.30;;;;;;5031688;28;19948;-74
2022/09/03 05:38:41;;;;;;;;;;;15.40;98.60;;;;;;5033448;28;20148;-73
2022/09/03 05:41:08;;;;;;;;;;;15.30;98.80;;;;;;5032656;28;19927;-79
2022/09/03 05:43:33;;;;;;;;;;;15.40;98.70;;;;;;5030113;28;19960;-73
2022/09/03 05:46:04;;;;;;;;;;;15.40;98.20;;;;;;5028286;28;20328;-72
2022/09/03 05:48:30;;;;;;;;;;;15.50;98.80;;;;;;5033976;28;20638;-74
2022/09/03 05:50:59;;;;;;;;;;;15.50;98.80;;;;;;5031500;28;19944;-74
2022/09/03 05:53:26;;;;;;;;;;;15.50;98.40;;;;;;5028629;28;19917;-72
2022/09/03 05:55:58;;;;;;;;;;;15.60;98.90;;;;;;5029227;28;19921;-73
2022/09/03 05:58:25;;;;;;;;;;;15.60;98.20;;;;;;5031161;28;19917;-74
2022/09/03 06:00:51;;;;;;;;;;;15.60;98.80;;;;;;5031803;28;19925;-75
2022/09/03 06:03:17;;;;;;;;;;;15.60;99.70;;;;;;5023285;28;19927;-75
2022/09/03 06:05:49;;;;;;;;;;;15.60;99.30;;;;;;5028097;28;19939;-73
2022/09/03 06:08:15;;;;;;;;;;;15.70;98.70;;;;;;5030832;28;19913;-72
2022/09/03 06:10:40;;;;;;;;;;;15.70;99.60;;;;;;5030217;28;19944;-75
2022/09/03 06:13:06;;;;;;;;;;;15.70;99.40;;;;;;5031080;28;20007;-75
2022/09/03 06:15:32;;;;;;;;;;;15.80;99.20;;;;;;5029484;28;20236;-76
2022/09/03 06:17:57;;;;;;;;;;;15.80;99.60;;;;;;5030412;28;19928;-71
2022/09/03 06:20:26;;;;;;;;;;;15.80;99.40;;;;;;5031432;28;20251;-76
2022/09/03 06:22:52;;;;;;;;;;;15.80;99.00;;;;;;5032691;28;19931;-72
2022/09/03 06:25:18;;;;;;;;;;;15.90;98.60;;;;;;5031898;28;19917;-73
2022/09/03 06:27:44;;;;;;;;;;;16.00;98.40;;;;;;5034570;28;19913;-78
2022/09/03 06:30:10;;;;;;;;;;;16.00;99.40;;;;;;5034431;28;19917;-77
2022/09/03 06:32:43;;;;;;;;;;;16.00;99.50;;;;;;5033964;28;19946;-74
2022/09/03 06:35:08;;;;;;;;;;;16.10;98.80;;;;;;5030822;28;20521;-72
2022/09/03 06:37:41;;;;;;;;;;;16.20;99.20;;;;;;5032966;28;19924;-76
2022/09/03 06:40:11;;;;;;;;;;;16.20;98.80;;;;;;5036203;28;20000;-74
2022/09/03 06:42:37;;;;;;;;;;;16.30;98.60;;;;;;5051044;28;20312;-75
2022/09/03 06:45:03;;;;;;;;;;;16.30;98.70;;;;;;5036210;28;19917;-75
2022/09/03 06:47:29;;;;;;;;;;;16.40;99.10;;;;;;5028315;28;19917;-75
2022/09/03 06:49:54;;;;;;;;;;;16.40;98.70;;;;;;5035359;28;20189;-77
2022/09/03 06:52:20;;;;;;;;;;;16.50;98.90;;;;;;5031634;28;20312;-74
2022/09/03 06:54:47;;;;;;;;;;;16.50;98.60;;;;;;5030524;28;20340;-72
2022/09/03 06:57:12;;;;;;;;;;;16.60;98.00;;;;;;5045342;28;20221;-72
2022/09/03 06:59:38;;;;;;;;;;;16.60;98.60;;;;;;5031641;28;19921;-74
2022/09/03 07:02:03;;;;;;;;;;;16.70;98.50;;;;;;5027293;28;19964;-73
2022/09/03 07:04:30;;;;;;;;;;;16.80;97.70;;;;;;5030175;28;19920;-72
2022/09/03 07:06:55;;;;;;;;;;;17.00;97.50;;;;;;5025539;28;19914;-75
2022/09/03 07:09:21;;;;;;;;;;;17.30;98.20;;;;;;5052859;28;19940;-74
2022/09/03 07:11:48;;;;;;;;;;;17.80;98.00;;;;;;5051106;28;20300;-71
2022/09/03 07:14:14;;;;;;;;;;;18.50;97.20;;;;;;5042022;28;19913;-73
2022/09/03 07:16:40;;;;;;;;;;;19.10;95.20;;;;;;5061420;28;21217;-73
2022/09/03 07:19:07;;;;;;;;;;;19.90;95.30;;;;;;5050542;28;19916;-77
2022/09/03 07:21:35;;;;;;;;;;;20.60;94.30;;;;;;5043552;28;19917;-76
2022/09/03 07:24:01;;;;;;;;;;;21.30;94.10;;;;;;5046955;28;20018;-73
2022/09/03 07:26:29;;;;;;;;;;;22.10;93.60;;;;;;5047067;28;19923;-74
2022/09/03 07:28:55;;;;;;;;;;;22.30;91.50;;;;;;5049228;28;19967;-78
2022/09/03 07:31:24;;;;;;;;;;;22.00;91.20;;;;;;5051915;28;19947;-73
2022/09/03 07:34:00;;;;;;;;;;;21.70;92.30;;;;;;5059022;28;19921;-76
2022/09/03 07:36:26;;;;;;;;;;;21.40;92.70;;;;;;5043676;28;20556;-73
2022/09/03 07:38:56;;;;;;;;;;;21.60;93.30;;;;;;5060480;28;19921;-74
2022/09/03 07:41:23;;;;;;;;;;;21.60;92.30;;;;;;5048662;28;19921;-78
2022/09/03 07:43:49;;;;;;;;;;;21.60;92.90;;;;;;5049256;28;19916;-73
2022/09/03 07:46:21;;;;;;;;;;;21.70;92.70;;;;;;5040964;28;20182;-77
2022/09/03 07:48:49;;;;;;;;;;;21.90;92.30;;;;;;5045708;28;20552;-72
2022/09/03 07:51:16;;;;;;;;;;;21.90;91.70;;;;;;5045662;28;19913;-76
2022/09/03 07:53:42;;;;;;;;;;;22.20;93.00;;;;;;5028908;28;19944;-72
2022/09/03 07:56:09;;;;;;;;;;;22.40;92.60;;;;;;5030837;28;19921;-71
2022/09/03 07:58:35;;;;;;;;;;;22.50;91.00;;;;;;5044802;28;19962;-75
2022/09/03 08:01:04;;;;;;;;;;;22.60;92.20;;;;;;5033506;28;20231;-76
2022/09/03 08:03:30;;;;;;;;;;;22.60;91.30;;;;;;5032345;28;19929;-73
2022/09/03 08:05:59;;;;;;;;;;;22.90;91.20;;;;;;5031996;28;20250;-77
2022/09/03 08:08:25;;;;;;;;;;;22.90;90.60;;;;;;5032291;28;19916;-77
2022/09/03 08:10:50;;;;;;;;;;;23.10;90.90;;;;;;5028364;28;19927;-78
2022/09/03 08:13:16;;;;;;;;;;;23.50;91.30;;;;;;5030125;28;19926;-76
2022/09/03 08:15:42;;;;;;;;;;;24.20;91.00;;;;;;5034159;28;19913;-77
2022/09/03 08:18:07;;;;;;;;;;;24.50;90.10;;;;;;5032147;28;19921;-78
2022/09/03 08:20:33;;;;;;;;;;;24.50;88.50;;;;;;5031043;28;20110;-75
2022/09/03 08:23:00;;;;;;;;;;;24.30;88.60;;;;;;5031070;28;19921;-78
2022/09/03 08:25:26;;;;;;;;;;;24.30;88.40;;;;;;5029363;28;19929;-74
2022/09/03 08:27:51;;;;;;;;;;;24.40;88.90;;;;;;5032423;28;19917;-77
2022/09/03 08:30:17;;;;;;;;;;;24.20;88.50;;;;;;5032382;28;19923;-80
2022/09/03 08:32:43;;;;;;;;;;;24.50;90.40;;;;;;5012981;28;19925;-74
2022/09/03 08:35:08;;;;;;;;;;;24.60;88.40;;;;;;5032797;28;20262;-77
2022/09/03 08:37:34;;;;;;;;;;;24.40;87.70;;;;;;5029236;28;20589;-76
2022/09/03 08:40:00;;;;;;;;;;;24.20;88.60;;;;;;5032919;28;19913;-79
2022/09/03 08:42:25;;;;;;;;;;;24.30;88.80;;;;;;5028098;28;19928;-77
2022/09/03 08:44:53;;;;;;;;;;;24.50;88.40;;;;;;5026474;28;19975;-78
2022/09/03 08:47:21;;;;;;;;;;;24.50;87.30;;;;;;5026907;28;20030;-77
2022/09/03 08:49:59;;;;;;;;;;;24.30;88.20;;;;;;5037207;28;20020;-73
2022/09/03 08:52:25;;;;;;;;;;;24.40;88.00;;;;;;5026646;28;19959;-77
2022/09/03 08:54:53;;;;;;;;;;;24.50;90.40;;;;;;5037786;28;20113;-74
2022/09/03 08:57:19;;;;;;;;;;;24.60;87.30;;;;;;5025846;28;19949;-74
2022/09/03 08:59:46;;;;;;;;;;;24.70;89.40;;;;;;5017716;28;19925;-74
2022/09/03 09:02:15;;;;;;;;;;;24.80;88.90;;;;;;5030599;28;20395;-75
2022/09/03 09:04:49;;;;;;;;;;;24.80;87.70;;;;;;5028324;28;19924;-72
2022/09/03 09:07:15;;;;;;;;;;;24.70;87.60;;;;;;5039938;28;19933;-73
2022/09/03 09:09:55;;;;;;;;;;;24.60;87.60;;;;;;5026801;28;19921;-72
2022/09/03 09:12:39;;;;;;;;;;;24.40;87.60;;;;;;5031852;28;19923;-78
2022/09/03 09:15:25;;;;;;;;;;;24.40;88.70;;;;;;5035845;28;19924;-78
2022/09/03 09:17:56;;;;;;;;;;;24.40;89.40;;;;;;5028114;28;20000;-76
2022/09/03 09:20:30;;;;;;;;;;;24.60;88.30;;;;;;5036944;28;19917;-75
2022/09/03 09:23:02;;;;;;;;;;;24.80;87.50;;;;;;5034694;28;19917;-78
2022/09/03 09:25:30;;;;;;;;;;;25.00;86.90;;;;;;5029341;28;19942;-74
2022/09/03 09:27:58;;;;;;;;;;;25.30;88.40;;;;;;5030621;28;20007;-76
2022/09/03 09:30:24;;;;;;;;;;;25.40;88.20;;;;;;5025668;28;21510;-76
2022/09/03 09:32:50;;;;;;;;;;;25.60;89.00;;;;;;5028995;28;20248;-73
2022/09/03 09:35:16;;;;;;;;;;;25.70;86.90;;;;;;5030575;28;19928;-76
2022/09/03 09:37:49;;;;;;;;;;;25.70;85.50;;;;;;5024195;28;19921;-77
2022/09/03 09:40:32;;;;;;;;;;;25.70;87.50;;;;;;5030847;28;20062;-77
2022/09/03 09:43:24;;;;;;;;;;;26.00;87.90;;;;;;5030623;28;19925;-76
2022/09/03 09:45:52;;;;;;;;;;;26.20;86.10;;;;;;5024833;28;19917;-77
2022/09/03 09:48:17;;;;;;;;;;;26.50;86.10;;;;;;5031862;28;20445;-82
2022/09/03 09:50:43;;;;;;;;;;;26.60;84.40;;;;;;5041932;28;19919;-75
2022/09/03 09:53:16;;;;;;;;;;;26.50;84.00;;;;;;5030479;28;19924;-76
2022/09/03 09:55:53;;;;;;;;;;;26.40;85.70;;;;;;5033313;28;20288;-79
2022/09/03 09:58:19;;;;;;;;;;;26.40;83.50;;;;;;5050116;28;19928;-76
2022/09/03 10:00:59;;;;;;;;;;;26.50;84.10;;;;;;5033756;28;20230;-75
2022/09/03 10:03:26;;;;;;;;;;;26.50;84.70;;;;;;5031423;28;19998;-72
2022/09/03 10:08:51;;;;;;;;;;;26.80;85.10;;;;;;5033954;28;19963;-78
2022/09/03 10:11:18;;;;;;;;;;;26.80;82.60;;;;;;5031857;28;20020;-72
2022/09/03 10:13:47;;;;;;;;;;;26.80;83.70;;;;;;5033185;28;19913;-75
2022/09/03 10:16:12;;;;;;;;;;;26.70;84.20;;;;;;5049700;28;20007;-73
2022/09/03 10:18:42;;;;;;;;;;;26.80;83.40;;;;;;5034100;28;20369;-74
2022/09/03 10:21:13;;;;;;;;;;;26.80;85.00;;;;;;5034956;28;19976;-74
2022/09/03 10:23:49;;;;;;;;;;;26.80;82.10;;;;;;5027854;28;20216;-77
2022/09/03 10:26:20;;;;;;;;;;;26.70;83.10;;;;;;5033398;28;20008;-74
2022/09/03 10:28:49;;;;;;;;;;;26.70;83.00;;;;;;5032680;28;19921;-73
2022/09/03 10:31:16;;;;;;;;;;;26.90;84.50;;;;;;5030467;28;20232;-73
2022/09/03 10:33:51;;;;;;;;;;;27.20;83.40;;;;;;5035081;28;20012;-74
2022/09/03 10:36:22;;;;;;;;;;;27.20;82.80;;;;;;5032781;28;19913;-72
2022/09/03 10:38:52;;;;;;;;;;;27.30;81.50;;;;;;5030896;28;19921;-73
2022/09/03 10:41:54;;;;;;;;;;;27.10;81.20;;;;;;5031823;28;20366;-72
2022/09/03 10:44:41;;;;;;;;;;;27.10;84.90;;;;;;4990869;28;20335;-74
2022/09/03 10:47:07;;;;;;;;;;;27.20;84.50;;;;;;5040280;28;19924;-72
2022/09/03 10:49:32;;;;;;;;;;;27.30;84.30;;;;;;5031148;28;19924;-74
2022/09/03 10:52:06;;;;;;;;;;;27.50;82.20;;;;;;5035625;28;19922;-74
2022/09/03 10:54:40;;;;;;;;;;;27.60;81.40;;;;;;5015867;28;20316;-72
2022/09/03 10:57:06;;;;;;;;;;;27.70;83.50;;;;;;5030494;28;19952;-74
2022/09/03 10:59:32;;;;;;;;;;;27.60;81.40;;;;;;5034053;28;19921;-72
2022/09/03 11:02:03;;;;;;;;;;;27.50;82.00;;;;;;5041622;28;19932;-76
2022/09/03 11:04:29;;;;;;;;;;;27.50;84.40;;;;;;5035017;28;19925;-72
2022/09/03 11:07:05;;;;;;;;;;;27.50;81.90;;;;;;5032890;28;19913;-73
2022/09/03 11:09:33;;;;;;;;;;;27.70;81.60;;;;;;5027357;28;19980;-77
2022/09/03 11:12:06;;;;;;;;;;;27.70;80.80;;;;;;5045585;28;19966;-73
2022/09/03 11:14:32;;;;;;;;;;;27.70;82.50;;;;;;5043684;28;19967;-72
2022/09/03 11:17:01;;;;;;;;;;;27.50;82.10;;;;;;5043591;28;19955;-74
2022/09/03 11:19:36;;;;;;;;;;;27.50;82.30;;;;;;5029177;28;19920;-79
2022/09/03 11:22:04;;;;;;;;;;;27.60;79.40;;;;;;5049969;28;19921;-74
2022/09/03 11:24:31;;;;;;;;;;;27.80;81.30;;;;;;5043980;28;20026;-73
2022/09/03 11:27:00;;;;;;;;;;;28.00;84.70;;;;;;5037410;28;19924;-78
2022/09/03 11:29:44;;;;;;;;;;;28.10;80.10;;;;;;5040175;28;20348;-72
2022/09/03 11:32:19;;;;;;;;;;;28.10;79.70;;;;;;5049189;28;19913;-74
2022/09/03 11:34:53;;;;;;;;;;;28.00;79.40;;;;;;5040989;28;20224;-72
2022/09/03 11:37:29;;;;;;;;;;;27.90;79.90;;;;;;5034895;28;20011;-72
2022/09/03 11:39:54;;;;;;;;;;;28.00;83.30;;;;;;5025666;28;20008;-72
2022/09/03 11:42:37;;;;;;;;;;;28.20;83.00;;;;;;5042746;28;20082;-74
2022/09/03 11:45:22;;;;;;;;;;;28.40;79.60;;;;;;5041256;28;19913;-73
2022/09/03 11:47:48;;;;;;;;;;;28.60;82.00;;;;;;5045233;28;19921;-74
2022/09/03 11:50:30;;;;;;;;;;;28.70;79.30;;;;;;5050006;28;19958;-73
2022/09/03 11:53:09;;;;;;;;;;;28.50;77.30;;;;;;5047645;28;20247;-73
2022/09/03 11:55:55;;;;;;;;;;;28.30;78.30;;;;;;5027520;28;19913;-76
2022/09/03 11:58:27;;;;;;;;;;;28.40;78.90;;;;;;5047965;28;20301;-73
2022/09/03 12:00:54;;;;;;;;;;;28.50;79.30;;;;;;5032590;28;19932;-73
2022/09/03 12:03:27;;;;;;;;;;;28.60;81.60;;;;;;5033387;28;19929;-72
2022/09/03 12:05:55;;;;;;;;;;;28.70;79.20;;;;;;5030626;28;20387;-74
2022/09/03 12:08:33;;;;;;;;;;;28.80;78.60;;;;;;5029604;28;19917;-74
2022/09/03 12:11:10;;;;;;;;;;;28.80;80.60;;;;;;5036728;28;19917;-74
2022/09/03 12:13:43;;;;;;;;;;;28.70;79.10;;;;;;5034590;28;19913;-76
2022/09/03 12:16:14;;;;;;;;;;;28.60;78.80;;;;;;5035392;28;19967;-75
2022/09/03 12:18:40;;;;;;;;;;;28.50;79.00;;;;;;5030347;28;20319;-73
2022/09/03 12:21:10;;;;;;;;;;;28.40;79.50;;;;;;5034236;28;20312;-73
2022/09/03 12:23:38;;;;;;;;;;;28.30;77.60;;;;;;5031497;28;20676;-75
2022/09/03 12:26:12;;;;;;;;;;;28.30;79.20;;;;;;5031218;28;20239;-73
2022/09/03 12:28:37;;;;;;;;;;;28.40;82.00;;;;;;5030769;28;19966;-75
2022/09/03 12:31:06;;;;;;;;;;;28.50;78.10;;;;;;5028615;28;20332;-74
2022/09/03 12:33:32;;;;;;;;;;;28.60;81.00;;;;;;5030854;28;20557;-74
2022/09/03 12:35:59;;;;;;;;;;;28.60;77.60;;;;;;5033097;28;20013;-73
2022/09/03 12:38:25;;;;;;;;;;;28.40;79.80;;;;;;5034272;28;19909;-71
2022/09/03 12:40:51;;;;;;;;;;;28.40;81.20;;;;;;5033536;28;19917;-77
2022/09/03 12:43:17;;;;;;;;;;;28.60;79.40;;;;;;5032715;28;19921;-74
2022/09/03 12:45:43;;;;;;;;;;;28.70;79.70;;;;;;5043319;28;19921;-74
2022/09/03 12:48:16;;;;;;;;;;;28.90;80.40;;;;;;5032992;28;19913;-73
2022/09/03 12:50:42;;;;;;;;;;;29.00;78.30;;;;;;5033066;28;19923;-73
2022/09/03 12:53:09;;;;;;;;;;;28.90;77.70;;;;;;5032182;28;19952;-73
2022/09/03 12:55:46;;;;;;;;;;;28.60;77.40;;;;;;5035250;28;20220;-73
2022/09/03 12:58:23;;;;;;;;;;;28.50;78.30;;;;;;5034528;28;19987;-76
2022/09/03 13:00:56;;;;;;;;;;;28.50;79.10;;;;;;5031246;28;20487;-75
2022/09/03 13:03:25;;;;;;;;;;;28.60;79.30;;;;;;5032152;28;20450;-74
2022/09/03 13:05:53;;;;;;;;;;;28.60;78.60;;;;;;5033614;28;19921;-74
2022/09/03 13:08:42;;;;;;;;;;;28.70;78.80;;;;;;5035061;28;19921;-74
2022/09/03 13:11:07;;;;;;;;;;;28.80;79.50;;;;;;5031774;28;19913;-75
2022/09/03 13:13:35;;;;;;;;;;;28.70;79.20;;;;;;5033416;28;19924;-75
2022/09/03 13:16:07;;;;;;;;;;;28.60;78.70;;;;;;5033059;28;20005;-75
2022/09/03 13:18:42;;;;;;;;;;;28.30;79.80;;;;;;5035753;28;19932;-74
2022/09/03 13:21:19;;;;;;;;;;;28.10;81.70;;;;;;5030107;28;20019;-72
2022/09/03 13:23:48;;;;;;;;;;;28.30;79.80;;;;;;5036225;28;19917;-76
2022/09/03 13:26:19;;;;;;;;;;;28.50;80.30;;;;;;5034714;28;19913;-77
2022/09/03 13:28:44;;;;;;;;;;;28.50;79.00;;;;;;5037238;28;19920;-74
2022/09/03 13:31:18;;;;;;;;;;;28.60;78.60;;;;;;5031033;28;20000;-81
2022/09/03 13:33:45;;;;;;;;;;;28.50;76.80;;;;;;5036239;28;19920;-74
2022/09/03 13:36:23;;;;;;;;;;;28.50;76.40;;;;;;5035385;28;19921;-84
2022/09/03 13:38:54;;;;;;;;;;;28.50;76.80;;;;;;5041606;28;19921;-71
2022/09/03 13:41:19;;;;;;;;;;;28.40;76.20;;;;;;5038537;28;19912;-72
2022/09/03 13:44:11;;;;;;;;;;;28.50;78.60;;;;;;5034906;28;19925;-74
2022/09/03 13:46:44;;;;;;;;;;;28.60;79.50;;;;;;5001560;28;19944;-77
2022/09/03 13:52:02;;;;;;;;;;;28.60;76.70;;;;;;5036162;28;19946;-75
2022/09/03 13:54:35;;;;;;;;;;;28.70;75.90;;;;;;5036330;28;19961;-79
2022/09/03 13:57:06;;;;;;;;;;;28.70;76.60;;;;;;5033842;28;19963;-77
2022/09/03 13:59:35;;;;;;;;;;;28.70;77.60;;;;;;5032554;28;19927;-74
2022/09/03 14:02:01;;;;;;;;;;;28.70;76.80;;;;;;5039581;28;19925;-74
2022/09/03 14:04:43;;;;;;;;;;;28.70;78.50;;;;;;5039880;28;19913;-74
2022/09/03 14:07:14;;;;;;;;;;;28.70;78.50;;;;;;5036514;28;19956;-73
2022/09/03 14:09:47;;;;;;;;;;;28.70;76.00;;;;;;5040678;28;19960;-76
2022/09/03 14:12:36;;;;;;;;;;;28.60;75.30;;;;;;5040600;28;19917;-73
2022/09/03 14:15:20;;;;;;;;;;;28.60;76.40;;;;;;5038495;28;19928;-74
2022/09/03 14:17:58;;;;;;;;;;;28.60;76.90;;;;;;5036857;28;20048;-72
2022/09/03 14:20:24;;;;;;;;;;;28.60;76.50;;;;;;5034045;28;19955;-77
2022/09/03 14:22:52;;;;;;;;;;;28.50;77.20;;;;;;5037466;28;19921;-73
2022/09/03 14:25:22;;;;;;;;;;;28.40;75.70;;;;;;5032498;28;19932;-76
2022/09/03 14:27:48;;;;;;;;;;;28.40;75.20;;;;;;5033365;28;19917;-74
2022/09/03 14:30:20;;;;;;;;;;;28.50;75.90;;;;;;5033735;28;19960;-73
2022/09/03 14:33:03;;;;;;;;;;;28.60;75.90;;;;;;5033509;28;19921;-74
2022/09/03 14:35:35;;;;;;;;;;;28.60;77.00;;;;;;5033771;28;19964;-75
2022/09/03 14:38:19;;;;;;;;;;;28.60;77.50;;;;;;5030607;28;20520;-72